No particular awareness of the weather is required.    There are no Weather-warnings


Meteo18 Weather Cam more information Meteo18 Weather Cam


Thunder radar more information blitzortung!


Rain radar more information rain snow radar


Visit our other weather sites:

Template documentation
and downloads

And another site



Weather Underground History page Text

Daily Summary for February 13, 2018 Units:  Both    English   Metric
« Previous Day
Next Day »
Daily Weekly Monthly Yearly Custom
  High: Low: Average:
Temperature: TemperatureC °F /  -17.8 °C -4.8 °F /  -20.4 °C -1 °F /  -18.3 °C
Dew Point: DewpointC °F /  -17.8 °C -5.5 °F /  -20.8 °C -2.5 °F /  -19.2 °C
Humidity: Humidity % 66 % 90 %
Wind Speed: WindSpeedKMH mph /  0 km/h - 2.7 mph /  4.3 km/h
Wind Gust: WindSpeedGustKMH mph /  0 km/h - -
Wind:- - SSE
Pressure: PressurehPa in /  0 hPa 1006.7 in /  34086.9 hPa -
Precipitation: 0.0 in /  0 mm    
Historical Graphs
 
 
Tabular Data for February 13, 2018
Time Temperature Dew Point Pressure Wind Wind Speed Wind Gust Humidity Rainfall Rate (Hourly)
TemperatureC °F /  -17.8 °C DewpointC °F /  -17.8 °C PressurehPa in /  0 hPa Calm     Humidity % HourlyPrecipMM in /  0 mm
00:05 -2.3 °F /  -19.1 °C -3.4 °F /  -19.7 °C 1019.2 in /  34510.1 hPa Calm     92 % 0.0 in /  0 mm
00:11 -2.1 °F /  -18.9 °C -3.1 °F /  -19.5 °C 1019.2 in /  34510.1 hPa Calm     93 % 0.0 in /  0 mm
00:17 -2.1 °F /  -18.9 °C -3.2 °F /  -19.6 °C 1019.2 in /  34510.1 hPa Calm     92 % 0.0 in /  0 mm
00:23 -2.1 °F /  -18.9 °C -3.1 °F /  -19.5 °C 1019.2 in /  34510.1 hPa Calm     93 % 0.0 in /  0 mm
00:29 -2.1 °F /  -18.9 °C -3.2 °F /  -19.6 °C 1019.2 in /  34510.1 hPa Calm     92 % 0.0 in /  0 mm
00:35 -2.2 °F /  -19 °C -3.3 °F /  -19.6 °C 1019.2 in /  34510.1 hPa Calm     92 % 0.0 in /  0 mm
00:41 -2.4 °F /  -19.1 °C -3.5 °F /  -19.7 °C 1019.2 in /  34510.1 hPa Calm     92 % 0.0 in /  0 mm
00:47 -2.4 °F /  -19.1 °C -3.4 °F /  -19.7 °C 1019.2 in /  34510.1 hPa Calm     93 % 0.0 in /  0 mm
00:53 -2.6 °F /  -19.2 °C -3.6 °F /  -19.8 °C 1019.2 in /  34510.1 hPa Calm   1.6 mph /  2.6 km/h 93 % 0.0 in /  0 mm
00:59 -2.6 °F /  -19.2 °C -3.6 °F /  -19.8 °C 1019.2 in /  34510.1 hPa Calm     93 % 0.0 in /  0 mm
01:05 -2.6 °F /  -19.2 °C -3.6 °F /  -19.8 °C 1018.8 in /  34496.6 hPa Calm     93 % 0.0 in /  0 mm
01:11 -2.8 °F /  -19.3 °C -3.8 °F /  -19.9 °C 1018.8 in /  34496.6 hPa Calm     93 % 0.0 in /  0 mm
01:18 -2.9 °F /  -19.4 °C -3.9 °F /  -19.9 °C 1018.8 in /  34496.6 hPa Calm   1.6 mph /  2.6 km/h 93 % 0.0 in /  0 mm
01:24 -2.8 °F /  -19.3 °C -3.6 °F /  -19.8 °C 1018.8 in /  34496.6 hPa Calm     94 % 0.0 in /  0 mm
01:30 -2.9 °F /  -19.4 °C -3.7 °F /  -19.8 °C 1018.8 in /  34496.6 hPa Calm     94 % 0.0 in /  0 mm
01:36 -3.0 °F /  -19.4 °C -3.8 °F /  -19.9 °C 1018.8 in /  34496.6 hPa Calm     94 % 0.0 in /  0 mm
01:42 -3.2 °F /  -19.6 °C -4.0 °F /  -20 °C 1018.8 in /  34496.6 hPa Calm     94 % 0.0 in /  0 mm
01:48 -3.2 °F /  -19.6 °C -4.0 °F /  -20 °C 1018.8 in /  34496.6 hPa Calm     94 % 0.0 in /  0 mm
01:54 -3.2 °F /  -19.6 °C -4.0 °F /  -20 °C 1018.5 in /  34486.4 hPa Calm     94 % 0.0 in /  0 mm
02:00 -3.2 °F /  -19.6 °C -4.0 °F /  -20 °C 1018.5 in /  34486.4 hPa Calm     94 % 0.0 in /  0 mm
02:06 -3.3 °F /  -19.6 °C -4.1 °F /  -20.1 °C 1018.5 in /  34486.4 hPa Calm     94 % 0.0 in /  0 mm
02:12 -3.2 °F /  -19.6 °C -3.9 °F /  -19.9 °C 1018.5 in /  34486.4 hPa Calm     95 % 0.0 in /  0 mm
02:18 -3.3 °F /  -19.6 °C -4.1 °F /  -20.1 °C 1018.5 in /  34486.4 hPa Calm     94 % 0.0 in /  0 mm
02:24 -3.4 °F /  -19.7 °C -4.1 °F /  -20.1 °C 1018.2 in /  34476.3 hPa Calm     95 % 0.0 in /  0 mm
02:30 -3.4 °F /  -19.7 °C -4.1 °F /  -20.1 °C 1018.2 in /  34476.3 hPa Calm     95 % 0.0 in /  0 mm
02:36 -3.5 °F /  -19.7 °C -4.2 °F /  -20.1 °C 1018.2 in /  34476.3 hPa Calm     95 % 0.0 in /  0 mm
02:42 -3.4 °F /  -19.7 °C -4.1 °F /  -20.1 °C 1018.2 in /  34476.3 hPa Calm     95 % 0.0 in /  0 mm
02:48 -3.5 °F /  -19.7 °C -4.2 °F /  -20.1 °C 1018.2 in /  34476.3 hPa Calm     95 % 0.0 in /  0 mm
02:54 -3.4 °F /  -19.7 °C -4.1 °F /  -20.1 °C 1018.2 in /  34476.3 hPa Calm     95 % 0.0 in /  0 mm
03:00 -3.4 °F /  -19.7 °C -4.1 °F /  -20.1 °C 1017.8 in /  34462.7 hPa Calm     95 % 0.0 in /  0 mm
03:06 -3.6 °F /  -19.8 °C -4.3 °F /  -20.2 °C 1017.8 in /  34462.7 hPa Calm     95 % 0.0 in /  0 mm
03:12 -3.7 °F /  -19.8 °C -4.4 °F /  -20.2 °C 1017.8 in /  34462.7 hPa Calm     95 % 0.0 in /  0 mm
03:18 -3.5 °F /  -19.7 °C -4.2 °F /  -20.1 °C 1017.8 in /  34462.7 hPa Calm     95 % 0.0 in /  0 mm
03:24 -3.6 °F /  -19.8 °C -4.3 °F /  -20.2 °C 1017.8 in /  34462.7 hPa Calm     95 % 0.0 in /  0 mm
03:30 -3.6 °F /  -19.8 °C -4.3 °F /  -20.2 °C 1017.8 in /  34462.7 hPa Calm     95 % 0.0 in /  0 mm
03:36 -3.6 °F /  -19.8 °C -4.3 °F /  -20.2 °C 1017.5 in /  34452.6 hPa Calm     95 % 0.0 in /  0 mm
03:42 -3.7 °F /  -19.8 °C -4.4 °F /  -20.2 °C 1017.5 in /  34452.6 hPa Calm     95 % 0.0 in /  0 mm
03:48 -3.8 °F /  -19.9 °C -4.5 °F /  -20.3 °C 1017.5 in /  34452.6 hPa Calm   1.6 mph /  2.6 km/h 95 % 0.0 in /  0 mm
03:54 -3.9 °F /  -19.9 °C -4.6 °F /  -20.3 °C 1017.5 in /  34452.6 hPa Calm   1.6 mph /  2.6 km/h 95 % 0.0 in /  0 mm
04:00 -3.8 °F /  -19.9 °C -4.5 °F /  -20.3 °C 1017.5 in /  34452.6 hPa Calm     95 % 0.0 in /  0 mm
04:06 -4.0 °F /  -20 °C -4.7 °F /  -20.4 °C 1017.5 in /  34452.6 hPa Calm     95 % 0.0 in /  0 mm
04:12 -4.2 °F /  -20.1 °C -4.9 °F /  -20.5 °C 1017.2 in /  34442.4 hPa Calm     95 % 0.0 in /  0 mm
04:18 -4.0 °F /  -20 °C -4.5 °F /  -20.3 °C 1017.2 in /  34442.4 hPa Calm     96 % 0.0 in /  0 mm
04:24 -3.9 °F /  -19.9 °C -4.4 °F /  -20.2 °C 1016.8 in /  34428.8 hPa Calm     96 % 0.0 in /  0 mm
04:30 -3.8 °F /  -19.9 °C -4.3 °F /  -20.2 °C 1016.8 in /  34428.8 hPa Calm     96 % 0.0 in /  0 mm
04:36 -3.8 °F /  -19.9 °C -4.3 °F /  -20.2 °C 1016.8 in /  34428.8 hPa Calm     96 % 0.0 in /  0 mm
04:42 -3.9 °F /  -19.9 °C -4.4 °F /  -20.2 °C 1016.8 in /  34428.8 hPa Calm     96 % 0.0 in /  0 mm
04:48 -3.9 °F /  -19.9 °C -4.4 °F /  -20.2 °C 1016.8 in /  34428.8 hPa Calm     96 % 0.0 in /  0 mm
04:54 -4.0 °F /  -20 °C -4.7 °F /  -20.4 °C 1016.5 in /  34418.7 hPa Calm     95 % 0.0 in /  0 mm
05:00 -4.1 °F /  -20.1 °C -4.8 °F /  -20.4 °C 1016.5 in /  34418.7 hPa Calm     95 % 0.0 in /  0 mm
05:06 -4.3 °F /  -20.2 °C -5.0 °F /  -20.6 °C 1016.5 in /  34418.7 hPa Calm     95 % 0.0 in /  0 mm
05:12 -4.4 °F /  -20.2 °C -5.1 °F /  -20.6 °C 1016.1 in /  34405.1 hPa Calm     95 % 0.0 in /  0 mm
05:18 -4.4 °F /  -20.2 °C -4.9 °F /  -20.5 °C 1016.1 in /  34405.1 hPa Calm     96 % 0.0 in /  0 mm
05:24 -4.4 °F /  -20.2 °C -4.9 °F /  -20.5 °C 1016.1 in /  34405.1 hPa Calm     96 % 0.0 in /  0 mm
05:30 -4.6 °F /  -20.3 °C -5.3 °F /  -20.7 °C 1016.1 in /  34405.1 hPa Calm     95 % 0.0 in /  0 mm
05:36 -4.7 °F /  -20.4 °C -5.2 °F /  -20.7 °C 1015.8 in /  34395 hPa Calm     96 % 0.0 in /  0 mm
05:42 -4.6 °F /  -20.3 °C -5.1 °F /  -20.6 °C 1015.8 in /  34395 hPa Calm     96 % 0.0 in /  0 mm
05:49 -4.5 °F /  -20.3 °C -5.0 °F /  -20.6 °C 1015.8 in /  34395 hPa Calm     96 % 0.0 in /  0 mm
05:55 -4.7 °F /  -20.4 °C -5.2 °F /  -20.7 °C 1015.8 in /  34395 hPa Calm     96 % 0.0 in /  0 mm
06:01 -4.6 °F /  -20.3 °C -5.1 °F /  -20.6 °C 1015.8 in /  34395 hPa Calm     96 % 0.0 in /  0 mm
06:07 -4.5 °F /  -20.3 °C -5.0 °F /  -20.6 °C 1015.5 in /  34384.8 hPa Calm     96 % 0.0 in /  0 mm
06:13 -4.6 °F /  -20.3 °C -5.1 °F /  -20.6 °C 1015.5 in /  34384.8 hPa Calm     96 % 0.0 in /  0 mm
06:19 -4.7 °F /  -20.4 °C -5.2 °F /  -20.7 °C 1015.5 in /  34384.8 hPa Calm     96 % 0.0 in /  0 mm
06:25 -4.6 °F /  -20.3 °C -5.1 °F /  -20.6 °C 1015.1 in /  34371.3 hPa Calm     96 % 0.0 in /  0 mm
06:31 -4.4 °F /  -20.2 °C -4.9 °F /  -20.5 °C 1015.1 in /  34371.3 hPa Calm     96 % 0.0 in /  0 mm
06:37 -4.3 °F /  -20.2 °C -4.8 °F /  -20.4 °C 1015.1 in /  34371.3 hPa Calm     96 % 0.0 in /  0 mm
06:43 -4.6 °F /  -20.3 °C -5.1 °F /  -20.6 °C 1014.8 in /  34361.1 hPa Calm     96 % 0.0 in /  0 mm
06:49 -4.4 °F /  -20.2 °C -4.9 °F /  -20.5 °C 1014.8 in /  34361.1 hPa Calm     96 % 0.0 in /  0 mm
06:55 -4.7 °F /  -20.4 °C -5.2 °F /  -20.7 °C 1014.8 in /  34361.1 hPa Calm     96 % 0.0 in /  0 mm
07:01 -4.6 °F /  -20.3 °C -5.1 °F /  -20.6 °C 1014.4 in /  34347.6 hPa Calm     96 % 0.0 in /  0 mm
07:07 -4.6 °F /  -20.3 °C -5.1 °F /  -20.6 °C 1014.4 in /  34347.6 hPa Calm     96 % 0.0 in /  0 mm
07:13 -4.8 °F /  -20.4 °C -5.5 °F /  -20.8 °C 1014.4 in /  34347.6 hPa Calm     95 % 0.0 in /  0 mm
07:19 -4.8 °F /  -20.4 °C -5.3 °F /  -20.7 °C 1014.4 in /  34347.6 hPa Calm     96 % 0.0 in /  0 mm
07:25 -4.7 °F /  -20.4 °C -5.2 °F /  -20.7 °C 1014.1 in /  34337.4 hPa Calm     96 % 0.0 in /  0 mm
07:31 -4.7 °F /  -20.4 °C -5.2 °F /  -20.7 °C 1014.1 in /  34337.4 hPa Calm     96 % 0.0 in /  0 mm
07:37 -4.7 °F /  -20.4 °C -5.2 °F /  -20.7 °C 1014.1 in /  34337.4 hPa SW 1.4 mph /  2.3 km/h 1.6 mph /  2.6 km/h 96 % 0.0 in /  0 mm
07:44 -4.6 °F /  -20.3 °C -5.1 °F /  -20.6 °C 1014.1 in /  34337.4 hPa Calm   1.6 mph /  2.6 km/h 96 % 0.0 in /  0 mm
07:49 -4.4 °F /  -20.2 °C -4.9 °F /  -20.5 °C 1014.1 in /  34337.4 hPa Calm   1.6 mph /  2.6 km/h 96 % 0.0 in /  0 mm
07:56 -4.3 °F /  -20.2 °C -4.8 °F /  -20.4 °C 1013.8 in /  34327.3 hPa Calm     96 % 0.0 in /  0 mm
08:02 -4.3 °F /  -20.2 °C -4.8 °F /  -20.4 °C 1013.8 in /  34327.3 hPa Calm     96 % 0.0 in /  0 mm
08:08 -4.3 °F /  -20.2 °C -5.0 °F /  -20.6 °C 1013.8 in /  34327.3 hPa Calm   1.6 mph /  2.6 km/h 95 % 0.0 in /  0 mm
08:14 -4.2 °F /  -20.1 °C -4.9 °F /  -20.5 °C 1013.8 in /  34327.3 hPa Calm   1.6 mph /  2.6 km/h 95 % 0.0 in /  0 mm
08:20 -4.1 °F /  -20.1 °C -4.8 °F /  -20.4 °C 1013.8 in /  34327.3 hPa Calm     95 % 0.0 in /  0 mm
08:26 -3.9 °F /  -19.9 °C -4.6 °F /  -20.3 °C 1013.8 in /  34327.3 hPa Calm   1.6 mph /  2.6 km/h 95 % 0.0 in /  0 mm
08:32 -3.8 °F /  -19.9 °C -4.6 °F /  -20.3 °C 1013.8 in /  34327.3 hPa SW 3.2 mph /  5.1 km/h 3.2 mph /  5.1 km/h 94 % 0.0 in /  0 mm
08:38 -3.6 °F /  -19.8 °C -4.4 °F /  -20.2 °C 1013.8 in /  34327.3 hPa SSW 3.2 mph /  5.1 km/h 4.8 mph /  7.7 km/h 94 % 0.0 in /  0 mm
08:44 -3.3 °F /  -19.6 °C -4.1 °F /  -20.1 °C 1013.8 in /  34327.3 hPa South 1.4 mph /  2.3 km/h 3.2 mph /  5.1 km/h 94 % 0.0 in /  0 mm
08:50 -3.1 °F /  -19.5 °C -4.1 °F /  -20.1 °C 1013.4 in /  34313.7 hPa Calm   3.2 mph /  5.1 km/h 93 % 0.0 in /  0 mm
08:56 -2.7 °F /  -19.3 °C -3.7 °F /  -19.8 °C 1013.4 in /  34313.7 hPa Calm   6.4 mph /  10.3 km/h 93 % 0.0 in /  0 mm
09:02 -2.4 °F /  -19.1 °C -3.5 °F /  -19.7 °C 1013.1 in /  34303.6 hPa SE 3.2 mph /  5.1 km/h 6.4 mph /  10.3 km/h 92 % 0.0 in /  0 mm
09:08 -2.3 °F /  -19.1 °C -3.6 °F /  -19.8 °C 1012.8 in /  34293.4 hPa SE 3.2 mph /  5.1 km/h 6.4 mph /  10.3 km/h 91 % 0.0 in /  0 mm
09:14 -1.9 °F /  -18.8 °C -3.2 °F /  -19.6 °C 1012.8 in /  34293.4 hPa Calm   3.2 mph /  5.1 km/h 91 % 0.0 in /  0 mm
09:20 -1.5 °F /  -18.6 °C -2.8 °F /  -19.3 °C 1012.8 in /  34293.4 hPa SSE 1.4 mph /  2.3 km/h 6.4 mph /  10.3 km/h 91 % 0.0 in /  0 mm
09:26 -1.3 °F /  -18.5 °C -2.9 °F /  -19.4 °C 1012.8 in /  34293.4 hPa South 3.2 mph /  5.1 km/h 11.3 mph /  18.2 km/h 89 % 0.0 in /  0 mm
09:32 -1.2 °F /  -18.4 °C -2.8 °F /  -19.3 °C 1012.8 in /  34293.4 hPa SSW 3.2 mph /  5.1 km/h 9.7 mph /  15.6 km/h 89 % 0.0 in /  0 mm
09:38 -0.9 °F /  -18.3 °C -2.6 °F /  -19.2 °C 1012.8 in /  34293.4 hPa SE 3.2 mph /  5.1 km/h 6.4 mph /  10.3 km/h 88 % 0.0 in /  0 mm
09:48 -0.6 °F /  -18.1 °C -2.3 °F /  -19.1 °C 1012.8 in /  34293.4 hPa SSW 1.4 mph /  2.3 km/h 6.4 mph /  10.3 km/h 88 % 0.0 in /  0 mm
09:54 -0.4 °F /  -18 °C -2.3 °F /  -19.1 °C 1012.4 in /  34279.9 hPa SSW 3.2 mph /  5.1 km/h 8.0 mph /  12.9 km/h 87 % 0.0 in /  0 mm
10:00 -0.4 °F /  -18 °C -2.5 °F /  -19.2 °C 1012.4 in /  34279.9 hPa SSE 1.4 mph /  2.3 km/h 8.0 mph /  12.9 km/h 86 % 0.0 in /  0 mm
10:06 -0.4 °F /  -18 °C -2.6 °F /  -19.2 °C 1012.4 in /  34279.9 hPa SE 11.1 mph /  17.9 km/h 14.5 mph /  23.3 km/h 85 % 0.0 in /  0 mm
10:12 -0.2 °F /  -17.9 °C -2.4 °F /  -19.1 °C 1012.1 in /  34269.7 hPa SSE 3.2 mph /  5.1 km/h 11.3 mph /  18.2 km/h 85 % 0.0 in /  0 mm
10:18 0.1 °F /  -17.7 °C -2.3 °F /  -19.1 °C 1012.1 in /  34269.7 hPa SE 4.7 mph /  7.6 km/h 9.7 mph /  15.6 km/h 84 % 0.0 in /  0 mm
10:24 0.3 °F /  -17.6 °C -2.1 °F /  -18.9 °C 1012.1 in /  34269.7 hPa South 3.2 mph /  5.1 km/h 9.7 mph /  15.6 km/h 84 % 0.0 in /  0 mm
10:30 0.3 °F /  -17.6 °C -2.1 °F /  -18.9 °C 1011.7 in /  34256.2 hPa SE 13.0 mph /  20.9 km/h 13.0 mph /  20.9 km/h 84 % 0.0 in /  0 mm
10:36 0.3 °F /  -17.6 °C -2.4 °F /  -19.1 °C 1011.7 in /  34256.2 hPa SSW 6.4 mph /  10.3 km/h 16.1 mph /  25.9 km/h 82 % 0.0 in /  0 mm
10:42 0.5 °F /  -17.5 °C -2.1 °F /  -18.9 °C 1011.7 in /  34256.2 hPa South 11.1 mph /  17.9 km/h 14.5 mph /  23.3 km/h 83 % 0.0 in /  0 mm
10:48 0.6 °F /  -17.4 °C -2.5 °F /  -19.2 °C 1011.7 in /  34256.2 hPa SSE 6.4 mph /  10.3 km/h 17.7 mph /  28.5 km/h 80 % 0.0 in /  0 mm
10:54 0.7 °F /  -17.4 °C -2.4 °F /  -19.1 °C 1011.4 in /  34246 hPa ESE 11.1 mph /  17.9 km/h 16.1 mph /  25.9 km/h 80 % 0.0 in /  0 mm
11:00 0.8 °F /  -17.3 °C -2.3 °F /  -19.1 °C 1011.4 in /  34246 hPa SSE 3.2 mph /  5.1 km/h 17.7 mph /  28.5 km/h 80 % 0.0 in /  0 mm
11:06 0.9 °F /  -17.3 °C -2.0 °F /  -18.9 °C 1011.4 in /  34246 hPa South 3.2 mph /  5.1 km/h 4.8 mph /  7.7 km/h 81 % 0.0 in /  0 mm
11:12 1.0 °F /  -17.2 °C -2.1 °F /  -18.9 °C 1011.4 in /  34246 hPa SW 7.9 mph /  12.7 km/h 12.9 mph /  20.8 km/h 80 % 0.0 in /  0 mm
11:18 1.1 °F /  -17.2 °C -2.0 °F /  -18.9 °C 1011.1 in /  34235.8 hPa SE 3.2 mph /  5.1 km/h 9.7 mph /  15.6 km/h 80 % 0.0 in /  0 mm
11:24 1.2 °F /  -17.1 °C -2.2 °F /  -19 °C 1011.1 in /  34235.8 hPa SSE 7.9 mph /  12.7 km/h 22.5 mph /  36.2 km/h 78 % 0.0 in /  0 mm
11:30 1.3 °F /  -17.1 °C -2.1 °F /  -18.9 °C 1010.7 in /  34222.3 hPa SE 4.7 mph /  7.6 km/h 14.5 mph /  23.3 km/h 78 % 0.0 in /  0 mm
11:36 1.4 °F /  -17 °C -2.2 °F /  -19 °C 1010.7 in /  34222.3 hPa SE 3.2 mph /  5.1 km/h 12.9 mph /  20.8 km/h 77 % 0.0 in /  0 mm
11:42 1.6 °F /  -16.9 °C -2.0 °F /  -18.9 °C 1010.7 in /  34222.3 hPa South 6.4 mph /  10.3 km/h 14.5 mph /  23.3 km/h 77 % 0.0 in /  0 mm
11:48 1.7 °F /  -16.8 °C -2.1 °F /  -18.9 °C 1010.7 in /  34222.3 hPa SSE 9.7 mph /  15.6 km/h 11.3 mph /  18.2 km/h 76 % 0.0 in /  0 mm
11:54 1.8 °F /  -16.8 °C -2.3 °F /  -19.1 °C 1010.7 in /  34222.3 hPa SSE 9.7 mph /  15.6 km/h 20.9 mph /  33.6 km/h 74 % 0.0 in /  0 mm
12:00 2.0 °F /  -16.7 °C -2.1 °F /  -18.9 °C 1010.4 in /  34212.1 hPa SE 4.7 mph /  7.6 km/h 12.9 mph /  20.8 km/h 74 % 0.0 in /  0 mm
12:06 2.1 °F /  -16.6 °C -2.0 °F /  -18.9 °C 1010.4 in /  34212.1 hPa ESE 4.7 mph /  7.6 km/h 12.9 mph /  20.8 km/h 74 % 0.0 in /  0 mm
12:12 2.2 °F /  -16.6 °C -2.1 °F /  -18.9 °C 1010.4 in /  34212.1 hPa SSW 6.4 mph /  10.3 km/h 14.5 mph /  23.3 km/h 73 % 0.0 in /  0 mm
12:18 2.3 °F /  -16.5 °C -2.0 °F /  -18.9 °C 1010.0 in /  34198.6 hPa SE 3.2 mph /  5.1 km/h 8.0 mph /  12.9 km/h 73 % 0.0 in /  0 mm
12:24 2.3 °F /  -16.5 °C -2.4 °F /  -19.1 °C 1010.0 in /  34198.6 hPa SSE 3.2 mph /  5.1 km/h 12.9 mph /  20.8 km/h 71 % 0.0 in /  0 mm
12:30 2.2 °F /  -16.6 °C -2.3 °F /  -19.1 °C 1009.7 in /  34188.4 hPa SE 16.3 mph /  26.2 km/h 17.7 mph /  28.5 km/h 72 % 0.0 in /  0 mm
12:36 2.2 °F /  -16.6 °C -2.3 °F /  -19.1 °C 1009.7 in /  34188.4 hPa SE 6.4 mph /  10.3 km/h 14.5 mph /  23.3 km/h 72 % 0.0 in /  0 mm
12:42 2.1 °F /  -16.6 °C -2.6 °F /  -19.2 °C 1009.4 in /  34178.3 hPa ESE 7.9 mph /  12.7 km/h 17.7 mph /  28.5 km/h 71 % 0.0 in /  0 mm
12:48 2.2 °F /  -16.6 °C -2.3 °F /  -19.1 °C 1009.4 in /  34178.3 hPa SE 11.1 mph /  17.9 km/h 14.5 mph /  23.3 km/h 72 % 0.0 in /  0 mm
12:54 2.3 °F /  -16.5 °C -2.4 °F /  -19.1 °C 1009.0 in /  34164.7 hPa SSE 16.3 mph /  26.2 km/h 22.5 mph /  36.2 km/h 71 % 0.0 in /  0 mm
13:00 2.3 °F /  -16.5 °C -2.8 °F /  -19.3 °C 1009.0 in /  34164.7 hPa SE 6.4 mph /  10.3 km/h 19.3 mph /  31.1 km/h 69 % 0.0 in /  0 mm
13:06 2.3 °F /  -16.5 °C -2.6 °F /  -19.2 °C 1008.7 in /  34154.6 hPa SE 6.4 mph /  10.3 km/h 14.5 mph /  23.3 km/h 70 % 0.0 in /  0 mm
13:12 2.3 °F /  -16.5 °C -3.0 °F /  -19.4 °C 1008.4 in /  34144.4 hPa SSE 6.4 mph /  10.3 km/h 14.5 mph /  23.3 km/h 68 % 0.0 in /  0 mm
13:18 2.4 °F /  -16.4 °C -2.9 °F /  -19.4 °C 1008.7 in /  34154.6 hPa East 4.7 mph /  7.6 km/h 16.1 mph /  25.9 km/h 68 % 0.0 in /  0 mm
13:24 2.4 °F /  -16.4 °C -2.9 °F /  -19.4 °C 1008.4 in /  34144.4 hPa SE 6.4 mph /  10.3 km/h 16.1 mph /  25.9 km/h 68 % 0.0 in /  0 mm
13:30 2.4 °F /  -16.4 °C -3.1 °F /  -19.5 °C 1008.4 in /  34144.4 hPa ESE 6.4 mph /  10.3 km/h 17.7 mph /  28.5 km/h 67 % 0.0 in /  0 mm
13:36 2.4 °F /  -16.4 °C -3.1 °F /  -19.5 °C 1008.4 in /  34144.4 hPa SE 3.2 mph /  5.1 km/h 11.3 mph /  18.2 km/h 67 % 0.0 in /  0 mm
13:42 2.4 °F /  -16.4 °C -3.1 °F /  -19.5 °C 1008.0 in /  34130.9 hPa SE 1.4 mph /  2.3 km/h 9.7 mph /  15.6 km/h 67 % 0.0 in /  0 mm
13:48 2.5 °F /  -16.4 °C -3.0 °F /  -19.4 °C 1008.0 in /  34130.9 hPa SE 6.4 mph /  10.3 km/h 14.5 mph /  23.3 km/h 67 % 0.0 in /  0 mm
13:54 2.5 °F /  -16.4 °C -3.0 °F /  -19.4 °C 1008.0 in /  34130.9 hPa SE 3.2 mph /  5.1 km/h 16.1 mph /  25.9 km/h 67 % 0.0 in /  0 mm
14:00 2.5 °F /  -16.4 °C -3.2 °F /  -19.6 °C 1008.0 in /  34130.9 hPa SE 4.7 mph /  7.6 km/h 20.9 mph /  33.6 km/h 66 % 0.0 in /  0 mm
14:06 2.5 °F /  -16.4 °C -3.0 °F /  -19.4 °C 1008.0 in /  34130.9 hPa South 7.9 mph /  12.7 km/h 16.1 mph /  25.9 km/h 67 % 0.0 in /  0 mm
14:12 2.4 °F /  -16.4 °C -3.1 °F /  -19.5 °C 1008.0 in /  34130.9 hPa SSE 4.7 mph /  7.6 km/h 16.1 mph /  25.9 km/h 67 % 0.0 in /  0 mm
14:18 2.4 °F /  -16.4 °C -3.3 °F /  -19.6 °C 1008.0 in /  34130.9 hPa SSW 9.7 mph /  15.6 km/h 17.7 mph /  28.5 km/h 66 % 0.0 in /  0 mm
14:24 2.3 °F /  -16.5 °C -3.0 °F /  -19.4 °C 1008.0 in /  34130.9 hPa South 4.7 mph /  7.6 km/h 22.5 mph /  36.2 km/h 68 % 0.0 in /  0 mm
14:30 2.4 °F /  -16.4 °C -2.5 °F /  -19.2 °C 1007.7 in /  34120.7 hPa SSE 11.1 mph /  17.9 km/h 11.3 mph /  18.2 km/h 70 % 0.0 in /  0 mm
14:36 2.4 °F /  -16.4 °C -2.9 °F /  -19.4 °C 1007.7 in /  34120.7 hPa SSW 6.4 mph /  10.3 km/h 16.1 mph /  25.9 km/h 68 % 0.0 in /  0 mm
14:42 2.4 °F /  -16.4 °C -2.7 °F /  -19.3 °C 1007.7 in /  34120.7 hPa South 7.9 mph /  12.7 km/h 20.9 mph /  33.6 km/h 69 % 0.0 in /  0 mm
14:48 2.4 °F /  -16.4 °C -2.5 °F /  -19.2 °C 1007.7 in /  34120.7 hPa SSW 13.0 mph /  20.9 km/h 19.3 mph /  31.1 km/h 70 % 0.0 in /  0 mm
14:54 2.4 °F /  -16.4 °C -2.5 °F /  -19.2 °C 1007.3 in /  34107.2 hPa South 13.0 mph /  20.9 km/h 20.9 mph /  33.6 km/h 70 % 0.0 in /  0 mm
15:01 2.4 °F /  -16.4 °C -2.5 °F /  -19.2 °C 1007.3 in /  34107.2 hPa SW 16.3 mph /  26.2 km/h 17.7 mph /  28.5 km/h 70 % 0.0 in /  0 mm
15:07 2.4 °F /  -16.4 °C -2.7 °F /  -19.3 °C 1007.3 in /  34107.2 hPa South 6.4 mph /  10.3 km/h 11.3 mph /  18.2 km/h 69 % 0.0 in /  0 mm
15:13 2.4 °F /  -16.4 °C -2.5 °F /  -19.2 °C 1007.3 in /  34107.2 hPa SE 7.9 mph /  12.7 km/h 17.7 mph /  28.5 km/h 70 % 0.0 in /  0 mm
15:19 2.3 °F /  -16.5 °C -2.0 °F /  -18.9 °C 1007.3 in /  34107.2 hPa SSW 17.7 mph /  28.5 km/h 30.6 mph /  49.2 km/h 73 % 0.0 in /  0 mm
15:25 1.8 °F /  -16.8 °C -1.6 °F /  -18.7 °C 1007.3 in /  34107.2 hPa SW 19.5 mph /  31.4 km/h 24.1 mph /  38.8 km/h 78 % 0.0 in /  0 mm
15:31 1.4 °F /  -17 °C -1.2 °F /  -18.4 °C 1007.3 in /  34107.2 hPa SSW 14.3 mph /  23 km/h 24.1 mph /  38.8 km/h 83 % 0.0 in /  0 mm
15:37 1.3 °F /  -17.1 °C -0.9 °F /  -18.3 °C 1007.3 in /  34107.2 hPa SSW 9.7 mph /  15.6 km/h 22.5 mph /  36.2 km/h 85 % 0.0 in /  0 mm
15:43 1.0 °F /  -17.2 °C -0.9 °F /  -18.3 °C 1007.3 in /  34107.2 hPa South 9.7 mph /  15.6 km/h 22.5 mph /  36.2 km/h 87 % 0.0 in /  0 mm
15:49 0.4 °F /  -17.6 °C -0.9 °F /  -18.3 °C 1007.3 in /  34107.2 hPa SSW 9.7 mph /  15.6 km/h 17.7 mph /  28.5 km/h 91 % 0.0 in /  0 mm
15:55 0.2 °F /  -17.7 °C -0.8 °F /  -18.2 °C 1007.3 in /  34107.2 hPa SSW 13.0 mph /  20.9 km/h 14.5 mph /  23.3 km/h 93 % 0.0 in /  0 mm
16:01 0.1 °F /  -17.7 °C -0.8 °F /  -18.2 °C 1007.3 in /  34107.2 hPa SSW 4.7 mph /  7.6 km/h 11.3 mph /  18.2 km/h 94 % 0.0 in /  0 mm
16:07 0.0 °F /  -17.8 °C -0.8 °F /  -18.2 °C 1007.3 in /  34107.2 hPa SSW 9.7 mph /  15.6 km/h 11.3 mph /  18.2 km/h 94 % 0.0 in /  0 mm
16:13 -0.1 °F /  -17.8 °C -0.8 °F /  -18.2 °C 1007.3 in /  34107.2 hPa SSE 1.4 mph /  2.3 km/h 9.7 mph /  15.6 km/h 95 % 0.0 in /  0 mm
16:19 -0.1 °F /  -17.8 °C -0.8 °F /  -18.2 °C 1007.3 in /  34107.2 hPa South 1.4 mph /  2.3 km/h 6.4 mph /  10.3 km/h 95 % 0.0 in /  0 mm
16:25 0.0 °F /  -17.8 °C -0.7 °F /  -18.2 °C 1007.3 in /  34107.2 hPa South 4.7 mph /  7.6 km/h 4.8 mph /  7.7 km/h 95 % 0.0 in /  0 mm
16:31 0.0 °F /  -17.8 °C -0.7 °F /  -18.2 °C 1007.3 in /  34107.2 hPa SSE 4.7 mph /  7.6 km/h 8.0 mph /  12.9 km/h 95 % 0.0 in /  0 mm
16:37 0.0 °F /  -17.8 °C -0.6 °F /  -18.1 °C 1007.3 in /  34107.2 hPa Calm   4.8 mph /  7.7 km/h 96 % 0.0 in /  0 mm
16:43 0.0 °F /  -17.8 °C -0.6 °F /  -18.1 °C 1007.0 in /  34097 hPa Calm   8.0 mph /  12.9 km/h 96 % 0.0 in /  0 mm
16:49 0.0 °F /  -17.8 °C -0.6 °F /  -18.1 °C 1007.0 in /  34097 hPa SE 1.4 mph /  2.3 km/h 9.7 mph /  15.6 km/h 96 % 0.0 in /  0 mm
16:55 0.0 °F /  -17.8 °C -0.6 °F /  -18.1 °C 1007.0 in /  34097 hPa East 4.7 mph /  7.6 km/h 9.7 mph /  15.6 km/h 96 % 0.0 in /  0 mm
17:01 0.0 °F /  -17.8 °C -0.6 °F /  -18.1 °C 1007.0 in /  34097 hPa ESE 4.7 mph /  7.6 km/h 8.0 mph /  12.9 km/h 96 % 0.0 in /  0 mm
17:07 0.0 °F /  -17.8 °C -0.6 °F /  -18.1 °C 1007.0 in /  34097 hPa SE 6.4 mph /  10.3 km/h 6.4 mph /  10.3 km/h 96 % 0.0 in /  0 mm
17:13 0.0 °F /  -17.8 °C -0.6 °F /  -18.1 °C 1006.7 in /  34086.9 hPa East 6.4 mph /  10.3 km/h 9.7 mph /  15.6 km/h 96 % 0.0 in /  0 mm
17:19 0.0 °F /  -17.8 °C -0.6 °F /  -18.1 °C 1006.7 in /  34086.9 hPa East 11.1 mph /  17.9 km/h 11.3 mph /  18.2 km/h 96 % 0.0 in /  0 mm
17:25 0.0 °F /  -17.8 °C -0.6 °F /  -18.1 °C 1006.7 in /  34086.9 hPa SSE 3.2 mph /  5.1 km/h 9.7 mph /  15.6 km/h 96 % 0.0 in /  0 mm
17:31 0.0 °F /  -17.8 °C -0.6 °F /  -18.1 °C 1006.7 in /  34086.9 hPa SSE 6.4 mph /  10.3 km/h 8.0 mph /  12.9 km/h 96 % 0.0 in /  0 mm
17:37 0.0 °F /  -17.8 °C -0.6 °F /  -18.1 °C 1006.7 in /  34086.9 hPa SSE 1.4 mph /  2.3 km/h 4.8 mph /  7.7 km/h 96 % 0.0 in /  0 mm
17:43 0.0 °F /  -17.8 °C -0.6 °F /  -18.1 °C 1006.7 in /  34086.9 hPa SE 1.4 mph /  2.3 km/h 6.4 mph /  10.3 km/h 96 % 0.0 in /  0 mm
17:49 0.0 °F /  -17.8 °C -0.6 °F /  -18.1 °C 1007.0 in /  34097 hPa SSE 4.7 mph /  7.6 km/h 6.4 mph /  10.3 km/h 96 % 0.0 in /  0 mm
17:55 0.0 °F /  -17.8 °C -0.6 °F /  -18.1 °C 1007.0 in /  34097 hPa Calm   6.4 mph /  10.3 km/h 96 % 0.0 in /  0 mm
18:01 0.0 °F /  -17.8 °C -0.6 °F /  -18.1 °C 1007.0 in /  34097 hPa SSE 4.7 mph /  7.6 km/h 8.0 mph /  12.9 km/h 96 % 0.0 in /  0 mm
18:07 0.0 °F /  -17.8 °C -0.6 °F /  -18.1 °C 1007.0 in /  34097 hPa SSE 4.7 mph /  7.6 km/h 6.4 mph /  10.3 km/h 96 % 0.0 in /  0 mm
18:13 0.0 °F /  -17.8 °C -0.6 °F /  -18.1 °C 1006.7 in /  34086.9 hPa Calm   4.8 mph /  7.7 km/h 96 % 0.0 in /  0 mm
18:19 -0.1 °F /  -17.8 °C -0.7 °F /  -18.2 °C 1006.7 in /  34086.9 hPa South 1.4 mph /  2.3 km/h 8.0 mph /  12.9 km/h 96 % 0.0 in /  0 mm
18:25 -0.1 °F /  -17.8 °C -0.7 °F /  -18.2 °C 1006.7 in /  34086.9 hPa SE 3.2 mph /  5.1 km/h 8.0 mph /  12.9 km/h 96 % 0.0 in /  0 mm
18:31 0.0 °F /  -17.8 °C -0.6 °F /  -18.1 °C 1007.0 in /  34097 hPa SSE 1.4 mph /  2.3 km/h 11.3 mph /  18.2 km/h 96 % 0.0 in /  0 mm
18:37 0.0 °F /  -17.8 °C -0.6 °F /  -18.1 °C 1007.0 in /  34097 hPa SSE 1.4 mph /  2.3 km/h 8.0 mph /  12.9 km/h 96 % 0.0 in /  0 mm
18:43 0.0 °F /  -17.8 °C -0.6 °F /  -18.1 °C 1007.0 in /  34097 hPa SSE 1.4 mph /  2.3 km/h 3.2 mph /  5.1 km/h 96 % 0.0 in /  0 mm
18:49 0.0 °F /  -17.8 °C -0.6 °F /  -18.1 °C 1007.0 in /  34097 hPa Calm   4.8 mph /  7.7 km/h 96 % 0.0 in /  0 mm
18:55 0.0 °F /  -17.8 °C -0.6 °F /  -18.1 °C 1007.0 in /  34097 hPa SSE 1.4 mph /  2.3 km/h 4.8 mph /  7.7 km/h 96 % 0.0 in /  0 mm
19:01 0.0 °F /  -17.8 °C -0.6 °F /  -18.1 °C 1007.0 in /  34097 hPa SE 1.4 mph /  2.3 km/h 4.8 mph /  7.7 km/h 96 % 0.0 in /  0 mm
19:07 0.0 °F /  -17.8 °C -0.6 °F /  -18.1 °C 1007.0 in /  34097 hPa SSE 1.4 mph /  2.3 km/h 3.2 mph /  5.1 km/h 96 % 0.0 in /  0 mm
19:13 0.0 °F /  -17.8 °C -0.6 °F /  -18.1 °C 1007.0 in /  34097 hPa ESE 4.7 mph /  7.6 km/h 4.8 mph /  7.7 km/h 96 % 0.0 in /  0 mm
19:19 0.0 °F /  -17.8 °C -0.6 °F /  -18.1 °C 1007.0 in /  34097 hPa South 1.4 mph /  2.3 km/h 8.0 mph /  12.9 km/h 96 % 0.0 in /  0 mm
19:25 0.0 °F /  -17.8 °C -0.6 °F /  -18.1 °C 1007.0 in /  34097 hPa SW 6.4 mph /  10.3 km/h 9.7 mph /  15.6 km/h 96 % 0.0 in /  0 mm
19:31 0.0 °F /  -17.8 °C -0.6 °F /  -18.1 °C 1007.0 in /  34097 hPa SSE 6.4 mph /  10.3 km/h 9.7 mph /  15.6 km/h 96 % 0.0 in /  0 mm
19:37 0.0 °F /  -17.8 °C -0.6 °F /  -18.1 °C 1007.0 in /  34097 hPa South 3.2 mph /  5.1 km/h 4.8 mph /  7.7 km/h 96 % 0.0 in /  0 mm
19:43 0.0 °F /  -17.8 °C -0.4 °F /  -18 °C 1007.0 in /  34097 hPa Calm   6.4 mph /  10.3 km/h 97 % 0.0 in /  0 mm
19:49 0.0 °F /  -17.8 °C -0.4 °F /  -18 °C 1007.0 in /  34097 hPa SSE 1.4 mph /  2.3 km/h 8.0 mph /  12.9 km/h 97 % 0.0 in /  0 mm
19:55 0.0 °F /  -17.8 °C -0.4 °F /  -18 °C 1007.0 in /  34097 hPa Calm   4.8 mph /  7.7 km/h 97 % 0.0 in /  0 mm
20:01 0.0 °F /  -17.8 °C -0.4 °F /  -18 °C 1007.0 in /  34097 hPa ESE 4.7 mph /  7.6 km/h 6.4 mph /  10.3 km/h 97 % 0.0 in /  0 mm
20:07 0.0 °F /  -17.8 °C -0.4 °F /  -18 °C 1007.0 in /  34097 hPa Calm   6.4 mph /  10.3 km/h 97 % 0.0 in /  0 mm
20:13 0.0 °F /  -17.8 °C -0.4 °F /  -18 °C 1007.3 in /  34107.2 hPa SSW 3.2 mph /  5.1 km/h 6.4 mph /  10.3 km/h 97 % 0.0 in /  0 mm
20:19 0.1 °F /  -17.7 °C -0.3 °F /  -17.9 °C 1007.3 in /  34107.2 hPa Calm   4.8 mph /  7.7 km/h 97 % 0.0 in /  0 mm
20:25 0.1 °F /  -17.7 °C -0.3 °F /  -17.9 °C 1007.3 in /  34107.2 hPa Calm   1.6 mph /  2.6 km/h 97 % 0.0 in /  0 mm
20:31 0.1 °F /  -17.7 °C -0.3 °F /  -17.9 °C 1007.3 in /  34107.2 hPa SSE 1.4 mph /  2.3 km/h 6.4 mph /  10.3 km/h 97 % 0.0 in /  0 mm
20:37 0.1 °F /  -17.7 °C -0.3 °F /  -17.9 °C 1007.3 in /  34107.2 hPa SSW 1.4 mph /  2.3 km/h 3.2 mph /  5.1 km/h 97 % 0.0 in /  0 mm
20:43 0.1 °F /  -17.7 °C -0.3 °F /  -17.9 °C 1007.3 in /  34107.2 hPa Calm   1.6 mph /  2.6 km/h 97 % 0.0 in /  0 mm
20:49 0.0 °F /  -17.8 °C -0.4 °F /  -18 °C 1007.3 in /  34107.2 hPa Calm   1.6 mph /  2.6 km/h 97 % 0.0 in /  0 mm
20:55 0.1 °F /  -17.7 °C -0.3 °F /  -17.9 °C 1007.7 in /  34120.7 hPa Calm   1.6 mph /  2.6 km/h 97 % 0.0 in /  0 mm
21:01 0.0 °F /  -17.8 °C -0.4 °F /  -18 °C 1007.7 in /  34120.7 hPa Calm     97 % 0.0 in /  0 mm
21:07 0.0 °F /  -17.8 °C -0.4 °F /  -18 °C 1007.7 in /  34120.7 hPa Calm     97 % 0.0 in /  0 mm
21:13 0.0 °F /  -17.8 °C -0.4 °F /  -18 °C 1007.7 in /  34120.7 hPa Calm     97 % 0.0 in /  0 mm
21:19 0.0 °F /  -17.8 °C -0.4 °F /  -18 °C 1007.7 in /  34120.7 hPa Calm     97 % 0.0 in /  0 mm
21:25 0.0 °F /  -17.8 °C -0.4 °F /  -18 °C 1007.7 in /  34120.7 hPa Calm     97 % 0.0 in /  0 mm
21:31 0.0 °F /  -17.8 °C -0.4 °F /  -18 °C 1008.0 in /  34130.9 hPa Calm     97 % 0.0 in /  0 mm
21:37 0.0 °F /  -17.8 °C -0.4 °F /  -18 °C 1008.0 in /  34130.9 hPa Calm     97 % 0.0 in /  0 mm
21:43 0.0 °F /  -17.8 °C -0.4 °F /  -18 °C 1008.0 in /  34130.9 hPa Calm     97 % 0.0 in /  0 mm
21:49 0.1 °F /  -17.7 °C -0.3 °F /  -17.9 °C 1008.4 in /  34144.4 hPa Calm     97 % 0.0 in /  0 mm
21:55 0.1 °F /  -17.7 °C -0.3 °F /  -17.9 °C 1008.4 in /  34144.4 hPa Calm     97 % 0.0 in /  0 mm
22:03 0.0 °F /  -17.8 °C -0.4 °F /  -18 °C 1008.4 in /  34144.4 hPa Calm     97 % 0.0 in /  0 mm
22:09 0.0 °F /  -17.8 °C -0.4 °F /  -18 °C 1008.4 in /  34144.4 hPa Calm     97 % 0.0 in /  0 mm
22:15 0.1 °F /  -17.7 °C -0.3 °F /  -17.9 °C 1008.4 in /  34144.4 hPa Calm     97 % 0.0 in /  0 mm
22:21 0.0 °F /  -17.8 °C -0.4 °F /  -18 °C 1008.4 in /  34144.4 hPa Calm     97 % 0.0 in /  0 mm
22:27 0.0 °F /  -17.8 °C -0.4 °F /  -18 °C 1008.7 in /  34154.6 hPa Calm     97 % 0.0 in /  0 mm
22:33 0.0 °F /  -17.8 °C -0.4 °F /  -18 °C 1008.7 in /  34154.6 hPa Calm     97 % 0.0 in /  0 mm
22:40 0.0 °F /  -17.8 °C -0.4 °F /  -18 °C 1008.7 in /  34154.6 hPa Calm     97 % 0.0 in /  0 mm
22:45 0.0 °F /  -17.8 °C -0.4 °F /  -18 °C 1008.7 in /  34154.6 hPa Calm     97 % 0.0 in /  0 mm
22:51 0.1 °F /  -17.7 °C -0.3 °F /  -17.9 °C 1008.7 in /  34154.6 hPa Calm     97 % 0.0 in /  0 mm
22:58 0.0 °F /  -17.8 °C -0.4 °F /  -18 °C 1008.7 in /  34154.6 hPa Calm     97 % 0.0 in /  0 mm
23:04 0.1 °F /  -17.7 °C -0.3 °F /  -17.9 °C 1008.7 in /  34154.6 hPa Calm     97 % 0.0 in /  0 mm
23:10 0.1 °F /  -17.7 °C -0.3 °F /  -17.9 °C 1009.0 in /  34164.7 hPa Calm     97 % 0.0 in /  0 mm
23:16 0.1 °F /  -17.7 °C -0.3 °F /  -17.9 °C 1009.0 in /  34164.7 hPa Calm     97 % 0.0 in /  0 mm
23:22 0.1 °F /  -17.7 °C -0.3 °F /  -17.9 °C 1009.0 in /  34164.7 hPa Calm     97 % 0.0 in /  0 mm
23:28 0.1 °F /  -17.7 °C -0.3 °F /  -17.9 °C 1009.0 in /  34164.7 hPa Calm     97 % 0.0 in /  0 mm
23:34 0.1 °F /  -17.7 °C -0.3 °F /  -17.9 °C 1009.0 in /  34164.7 hPa Calm     97 % 0.0 in /  0 mm
23:40 0.2 °F /  -17.7 °C -0.2 °F /  -17.9 °C 1009.4 in /  34178.3 hPa Calm     97 % 0.0 in /  0 mm
23:46 0.2 °F /  -17.7 °C -0.2 °F /  -17.9 °C 1009.4 in /  34178.3 hPa Calm     97 % 0.0 in /  0 mm
23:52 0.3 °F /  -17.6 °C -0.1 °F /  -17.8 °C 1009.4 in /  34178.3 hPa Calm     97 % 0.0 in /  0 mm
23:58 0.3 °F /  -17.6 °C -0.1 °F /  -17.8 °C 1009.4 in /  34178.3 hPa Calm     97 % 0.0 in /  0 mm
Meteo18
Compliments of Weather Underground - 4 mb

Script developed by  Jim McMurry - jmcmurry@mwt.net Adapted for the template by  Wim van der Kuil - Leuven-Template.eu

You find our weather info also at:

European Weather Network

Weather Underground

Equipment we use:

Weather-station
Davis Vue

Weather-program
Meteobridge

Weather-server
Raspberry PI 2 B+

Provider
1 and 1

Davis Vue

Meteobridge

Raspberry PI 2 B+

1 and 1